createdAt,value
2018-03-06T00:00:50.164Z,0.00
2018-03-06T00:01:50.141Z,0.00
2018-03-06T00:02:50.120Z,0.00
2018-03-06T00:03:50.107Z,0.00
2018-03-06T00:04:50.081Z,0.00
2018-03-06T00:05:50.058Z,0.00
2018-03-06T00:06:50.041Z,0.00
2018-03-06T00:07:50.020Z,0.00
2018-03-06T00:08:50.003Z,0.00
2018-03-06T00:09:49.989Z,0.00
2018-03-06T00:10:49.960Z,0.00
2018-03-06T00:11:49.940Z,0.00
2018-03-06T00:12:49.920Z,0.00
2018-03-06T00:13:49.901Z,0.00
2018-03-06T00:14:49.878Z,0.00
2018-03-06T00:15:49.860Z,0.00
2018-03-06T00:16:49.893Z,0.00
2018-03-06T00:17:49.824Z,0.00
2018-03-06T00:18:49.797Z,0.00
2018-03-06T00:19:49.780Z,0.00
2018-03-06T00:20:49.767Z,0.00
2018-03-06T00:21:49.740Z,0.00
2018-03-06T00:22:49.720Z,0.00
2018-03-06T00:23:49.693Z,0.00
2018-03-06T00:24:49.673Z,0.00
2018-03-06T00:25:49.658Z,0.00
2018-03-06T00:26:49.633Z,0.00
2018-03-06T00:27:49.618Z,0.00
2018-03-06T00:28:49.594Z,0.00
2018-03-06T00:29:49.575Z,0.00
2018-03-06T00:30:49.558Z,0.00
2018-03-06T00:31:49.532Z,0.00
2018-03-06T00:32:49.520Z,0.00
2018-03-06T00:33:49.499Z,0.00
2018-03-06T00:34:49.473Z,0.00
2018-03-06T00:35:49.449Z,0.00
2018-03-06T00:36:49.433Z,0.00
2018-03-06T00:37:49.405Z,0.00
2018-03-06T00:38:49.388Z,0.00
2018-03-06T00:39:49.370Z,0.00
2018-03-06T00:40:49.349Z,0.00
2018-03-06T00:41:49.325Z,0.00
2018-03-06T00:42:49.308Z,0.00
2018-03-06T00:43:49.286Z,0.00
2018-03-06T00:44:49.265Z,0.00
2018-03-06T00:45:49.248Z,0.00
2018-03-06T00:46:49.220Z,0.00
2018-03-06T00:47:49.202Z,0.00
2018-03-06T00:48:49.185Z,0.00
2018-03-06T00:49:49.162Z,0.00
2018-03-06T00:50:49.143Z,0.00
2018-03-06T00:51:49.118Z,0.00
2018-03-06T00:52:49.100Z,0.00
2018-03-06T00:53:49.080Z,0.00
2018-03-06T00:54:49.059Z,0.00
2018-03-06T00:55:49.040Z,0.00
2018-03-06T00:56:49.019Z,0.00
2018-03-06T00:57:48.997Z,0.00
2018-03-06T00:58:48.980Z,0.00
2018-03-06T00:59:48.967Z,0.00
2018-03-06T01:00:48.932Z,0.00
2018-03-06T01:01:48.912Z,0.00
2018-03-06T01:02:48.899Z,0.00
2018-03-06T01:03:48.879Z,0.00
2018-03-06T01:04:48.860Z,0.00
2018-03-06T01:05:48.829Z,0.00
2018-03-06T01:06:48.812Z,0.00
2018-03-06T01:07:48.789Z,0.00
2018-03-06T01:08:48.768Z,0.00
2018-03-06T01:09:48.749Z,0.00
2018-03-06T01:10:48.778Z,0.00
2018-03-06T01:11:48.709Z,0.00
2018-03-06T01:12:48.688Z,0.00
2018-03-06T01:13:48.664Z,0.00
2018-03-06T01:14:48.701Z,0.00
2018-03-06T01:15:48.622Z,0.00
2018-03-06T01:16:48.606Z,0.00
2018-03-06T01:17:48.585Z,0.00
2018-03-06T01:18:48.565Z,0.00
2018-03-06T01:19:48.539Z,0.00
2018-03-06T01:20:48.520Z,0.00
2018-03-06T01:21:48.503Z,0.00
2018-03-06T01:22:48.479Z,0.00
2018-03-06T01:23:48.460Z,0.00
2018-03-06T01:24:48.433Z,0.00
2018-03-06T01:25:48.419Z,0.00
2018-03-06T01:26:48.448Z,0.00
2018-03-06T01:27:48.377Z,0.00
2018-03-06T01:28:48.355Z,0.00
2018-03-06T01:29:48.337Z,0.00
2018-03-06T01:30:48.316Z,0.00
2018-03-06T01:31:48.295Z,0.00
2018-03-06T01:32:48.273Z,0.00
2018-03-06T01:33:48.249Z,0.00
2018-03-06T01:34:48.228Z,0.00
2018-03-06T01:35:48.207Z,0.00
2018-03-06T01:36:48.249Z,0.00
2018-03-06T01:37:48.169Z,0.00
2018-03-06T01:38:48.199Z,0.00
2018-03-06T01:39:48.126Z,0.00
2018-03-06T01:40:48.107Z,0.00
2018-03-06T01:41:48.094Z,0.00
2018-03-06T01:42:48.071Z,0.00
2018-03-06T01:43:48.044Z,0.00
2018-03-06T01:44:48.020Z,0.00
2018-03-06T01:45:47.999Z,0.00
2018-03-06T01:46:47.978Z,0.00
2018-03-06T01:47:47.961Z,0.00
2018-03-06T01:48:47.940Z,0.00
2018-03-06T01:49:47.928Z,0.00
2018-03-06T01:50:47.901Z,0.00
2018-03-06T01:51:47.876Z,0.00
2018-03-06T01:52:47.863Z,0.00
2018-03-06T01:53:47.841Z,0.00
2018-03-06T01:54:47.815Z,0.00
2018-03-06T01:55:47.796Z,0.00
2018-03-06T01:56:47.770Z,0.00
2018-03-06T01:57:47.758Z,0.00
2018-03-06T01:58:47.724Z,0.00
2018-03-06T01:59:47.713Z,0.00
2018-03-06T02:00:47.684Z,0.00
2018-03-06T02:01:47.667Z,0.00
2018-03-06T02:02:47.651Z,0.00
2018-03-06T02:03:47.622Z,0.00
2018-03-06T02:04:47.599Z,0.00
2018-03-06T02:05:47.579Z,0.00
2018-03-06T02:06:47.560Z,0.00
2018-03-06T02:07:47.539Z,0.00
2018-03-06T02:08:47.516Z,0.00
2018-03-06T02:09:47.497Z,0.00
2018-03-06T02:10:47.481Z,0.00
2018-03-06T02:11:47.462Z,0.00
2018-03-06T02:12:47.435Z,0.00
2018-03-06T02:13:47.413Z,0.00
2018-03-06T02:14:47.395Z,0.00
2018-03-06T02:15:47.619Z,0.00
2018-03-06T02:16:47.351Z,0.00
2018-03-06T02:17:47.329Z,0.00
2018-03-06T02:18:47.307Z,0.00
2018-03-06T02:19:47.288Z,0.00
2018-03-06T02:20:47.267Z,0.00
2018-03-06T02:21:47.246Z,0.00
2018-03-06T02:22:47.229Z,0.00
2018-03-06T02:23:47.205Z,0.00
2018-03-06T02:24:47.179Z,0.00
2018-03-06T02:25:47.159Z,0.00
2018-03-06T02:26:47.193Z,0.00
2018-03-06T02:27:47.118Z,0.00
2018-03-06T02:28:47.165Z,0.00
2018-03-06T02:29:47.073Z,0.00
2018-03-06T02:30:47.214Z,0.00
2018-03-06T02:31:47.042Z,0.00
2018-03-06T02:32:47.143Z,0.00
2018-03-06T02:33:46.994Z,0.00
2018-03-06T02:34:46.976Z,0.00
2018-03-06T02:35:46.950Z,0.00
2018-03-06T02:36:46.930Z,0.00
2018-03-06T02:37:46.906Z,0.00
2018-03-06T02:38:46.986Z,0.00
2018-03-06T02:39:46.864Z,0.00
2018-03-06T02:40:46.903Z,0.00
2018-03-06T02:41:46.824Z,0.00
2018-03-06T02:42:46.821Z,0.00
2018-03-06T02:43:46.780Z,0.00
2018-03-06T02:44:46.761Z,0.00
2018-03-06T02:45:46.740Z,0.00
2018-03-06T02:46:46.810Z,0.00
2018-03-06T02:47:46.694Z,0.00
2018-03-06T02:48:46.676Z,0.00
2018-03-06T02:49:46.654Z,0.00
2018-03-06T02:50:46.669Z,0.00
2018-03-06T02:51:46.608Z,0.00
2018-03-06T02:52:46.728Z,0.00
2018-03-06T02:53:46.572Z,0.00
2018-03-06T02:54:46.653Z,0.00
2018-03-06T02:55:46.528Z,0.00
2018-03-06T02:56:46.632Z,0.00
2018-03-06T02:57:46.479Z,0.00
2018-03-06T02:58:46.463Z,0.00
2018-03-06T02:59:46.440Z,0.00
2018-03-06T03:00:46.534Z,0.00
2018-03-06T03:01:46.410Z,0.00
2018-03-06T03:02:46.456Z,0.00
2018-03-06T03:03:46.359Z,0.00
2018-03-06T03:04:46.330Z,0.00
2018-03-06T03:05:46.308Z,0.00
2018-03-06T03:06:46.315Z,0.00
2018-03-06T03:07:46.271Z,0.00
2018-03-06T03:08:46.249Z,0.00
2018-03-06T03:09:46.232Z,0.00
2018-03-06T03:10:46.243Z,0.00
2018-03-06T03:11:46.189Z,0.00
2018-03-06T03:12:46.159Z,0.00
2018-03-06T03:13:46.142Z,0.00
2018-03-06T03:14:46.119Z,0.00
2018-03-06T03:15:46.096Z,0.00
2018-03-06T03:16:46.083Z,0.00
2018-03-06T03:17:46.057Z,0.00
2018-03-06T03:18:46.033Z,0.00
2018-03-06T03:19:46.011Z,0.00
2018-03-06T03:20:45.990Z,0.00
2018-03-06T03:21:45.972Z,0.00
2018-03-06T03:22:45.946Z,0.00
2018-03-06T03:23:45.927Z,0.00
2018-03-06T03:24:45.917Z,0.00
2018-03-06T03:25:45.882Z,0.00
2018-03-06T03:26:45.860Z,0.00
2018-03-06T03:27:45.838Z,0.00
2018-03-06T03:28:45.817Z,0.00
2018-03-06T03:29:45.799Z,0.00
2018-03-06T03:30:45.773Z,0.00
2018-03-06T03:31:45.754Z,0.00
2018-03-06T03:32:45.738Z,0.00
2018-03-06T03:33:45.709Z,0.00
2018-03-06T03:34:45.688Z,0.00
2018-03-06T03:35:45.667Z,0.00
2018-03-06T03:36:45.645Z,0.00
2018-03-06T03:37:45.630Z,0.00
2018-03-06T03:38:45.611Z,0.00
2018-03-06T03:39:45.579Z,0.00
2018-03-06T03:40:45.557Z,0.00
2018-03-06T03:41:45.537Z,0.00
2018-03-06T03:42:45.515Z,0.00
2018-03-06T03:43:45.498Z,0.00
2018-03-06T03:44:45.470Z,0.00
2018-03-06T03:45:45.451Z,0.00
2018-03-06T03:46:45.431Z,0.00
2018-03-06T03:47:45.409Z,0.00
2018-03-06T03:48:45.391Z,0.00
2018-03-06T03:49:45.371Z,0.00
2018-03-06T03:50:45.341Z,0.00
2018-03-06T03:51:45.319Z,0.00
2018-03-06T03:52:45.299Z,0.00
2018-03-06T03:53:45.273Z,0.00
2018-03-06T03:54:45.259Z,0.00
2018-03-06T03:55:45.231Z,0.00
2018-03-06T03:56:45.213Z,0.00
2018-03-06T03:57:45.190Z,0.00
2018-03-06T03:58:45.169Z,0.00
2018-03-06T03:59:45.150Z,0.00
2018-03-06T04:00:45.123Z,0.00
2018-03-06T04:01:45.101Z,0.00
2018-03-06T04:02:45.081Z,0.00
2018-03-06T04:03:45.061Z,0.00
2018-03-06T04:04:45.040Z,0.00
2018-03-06T04:05:45.021Z,0.00
2018-03-06T04:06:44.995Z,0.00
2018-03-06T04:07:44.982Z,0.00
2018-03-06T04:08:44.954Z,0.00
2018-03-06T04:09:44.929Z,0.00
2018-03-06T04:10:44.906Z,0.00
2018-03-06T04:11:44.884Z,0.00
2018-03-06T04:12:44.877Z,0.00
2018-03-06T04:13:44.846Z,0.00
2018-03-06T04:14:44.829Z,0.00
2018-03-06T04:15:44.801Z,0.00
2018-03-06T04:16:44.779Z,0.00
2018-03-06T04:17:44.755Z,0.00
2018-03-06T04:18:44.739Z,0.00
2018-03-06T04:19:44.714Z,0.00
2018-03-06T04:20:44.688Z,0.00
2018-03-06T04:21:44.670Z,0.00
2018-03-06T04:22:44.646Z,0.00
2018-03-06T04:23:44.632Z,0.00
2018-03-06T04:24:44.601Z,0.00
2018-03-06T04:25:44.579Z,0.00
2018-03-06T04:26:44.560Z,0.00
2018-03-06T04:27:44.537Z,0.00
2018-03-06T04:28:44.520Z,0.00
2018-03-06T04:29:44.501Z,0.00
2018-03-06T04:30:44.472Z,0.00
2018-03-06T04:31:44.451Z,0.00
2018-03-06T04:32:44.430Z,0.00
2018-03-06T04:33:44.411Z,0.00
2018-03-06T04:34:44.387Z,0.00
2018-03-06T04:35:44.371Z,0.00
2018-03-06T04:36:44.342Z,0.00
2018-03-06T04:37:44.319Z,0.00
2018-03-06T04:38:44.298Z,0.00
2018-03-06T04:39:44.279Z,0.00
2018-03-06T04:40:44.255Z,0.00
2018-03-06T04:41:44.233Z,0.00
2018-03-06T04:42:44.220Z,0.00
2018-03-06T04:43:44.188Z,0.00
2018-03-06T04:44:44.167Z,0.00
2018-03-06T04:45:44.150Z,0.00
2018-03-06T04:46:44.127Z,0.00
2018-03-06T04:47:44.108Z,0.00
2018-03-06T04:48:44.081Z,0.00
2018-03-06T04:49:44.059Z,0.00
2018-03-06T04:50:44.041Z,0.00
2018-03-06T04:51:44.016Z,0.00
2018-03-06T04:52:43.999Z,0.00
2018-03-06T04:53:43.973Z,0.00
2018-03-06T04:54:43.948Z,0.00
2018-03-06T04:55:43.929Z,0.00
2018-03-06T04:56:43.915Z,0.00
2018-03-06T04:57:43.882Z,0.00
2018-03-06T04:58:43.870Z,0.00
2018-03-06T04:59:43.861Z,0.00
2018-03-06T05:00:43.818Z,0.00
2018-03-06T05:01:43.850Z,0.00
2018-03-06T05:02:43.776Z,0.00
2018-03-06T05:03:43.752Z,0.00
2018-03-06T05:04:43.741Z,0.00
2018-03-06T05:05:43.711Z,0.00
2018-03-06T05:06:43.690Z,0.00
2018-03-06T05:07:43.720Z,0.00
2018-03-06T05:08:43.646Z,0.00
2018-03-06T05:09:43.623Z,0.00
2018-03-06T05:10:43.599Z,0.00
2018-03-06T05:11:43.582Z,0.00
2018-03-06T05:12:43.555Z,0.00
2018-03-06T05:13:43.567Z,0.00
2018-03-06T05:14:43.521Z,0.00
2018-03-06T05:15:43.590Z,0.00
2018-03-06T05:16:43.467Z,0.00
2018-03-06T05:17:43.499Z,0.00
2018-03-06T05:18:43.428Z,0.00
2018-03-06T05:19:43.410Z,0.00
2018-03-06T05:20:43.380Z,0.00
2018-03-06T05:21:43.458Z,0.00
2018-03-06T05:22:43.344Z,0.00
2018-03-06T05:23:43.325Z,0.00
2018-03-06T05:24:43.297Z,0.00
2018-03-06T05:25:43.288Z,0.00
2018-03-06T05:26:43.250Z,0.00
2018-03-06T05:27:43.231Z,0.00
2018-03-06T05:28:43.212Z,0.00
2018-03-06T05:29:43.191Z,0.00
2018-03-06T05:30:43.164Z,0.00
2018-03-06T05:31:43.144Z,0.00
2018-03-06T05:32:43.117Z,0.00
2018-03-06T05:33:43.100Z,0.00
2018-03-06T05:34:43.076Z,0.00
2018-03-06T05:35:43.055Z,0.00
2018-03-06T05:36:43.033Z,0.00
2018-03-06T05:37:43.012Z,0.00
2018-03-06T05:38:42.991Z,0.00
2018-03-06T05:39:42.970Z,0.00
2018-03-06T05:40:42.942Z,0.00
2018-03-06T05:41:42.920Z,0.00
2018-03-06T05:42:42.898Z,0.00
2018-03-06T05:43:42.877Z,0.00
2018-03-06T05:44:42.860Z,0.00
2018-03-06T05:45:42.840Z,0.00
2018-03-06T05:46:42.819Z,0.00
2018-03-06T05:47:42.790Z,0.00
2018-03-06T05:48:42.765Z,0.00
2018-03-06T05:49:42.747Z,0.00
2018-03-06T05:50:42.731Z,0.00
2018-03-06T05:51:42.705Z,0.00
2018-03-06T05:52:42.682Z,0.00
2018-03-06T05:53:42.664Z,0.00
2018-03-06T05:54:42.641Z,0.00
2018-03-06T05:55:42.621Z,0.00
2018-03-06T05:56:42.596Z,0.00
2018-03-06T05:57:42.571Z,0.00
2018-03-06T05:58:42.547Z,0.00
2018-03-06T05:59:42.530Z,0.00
2018-03-06T06:00:42.509Z,0.00
2018-03-06T06:01:42.479Z,0.00
2018-03-06T06:02:42.463Z,0.00
2018-03-06T06:03:42.439Z,0.00
2018-03-06T06:04:42.416Z,0.00
2018-03-06T06:05:42.461Z,0.00
2018-03-06T06:06:42.376Z,5.63
2018-03-06T06:07:42.372Z,5.63
2018-03-06T06:08:42.330Z,5.63
2018-03-06T06:09:42.304Z,5.63
2018-03-06T06:10:42.292Z,5.63
2018-03-06T06:11:42.263Z,5.63
2018-03-06T06:12:42.239Z,5.63
2018-03-06T06:13:42.220Z,11.25
2018-03-06T06:14:42.196Z,11.25
2018-03-06T06:15:42.177Z,11.25
2018-03-06T06:16:42.153Z,11.25
2018-03-06T06:17:42.130Z,11.25
2018-03-06T06:18:42.108Z,11.25
2018-03-06T06:19:42.093Z,16.88
2018-03-06T06:20:42.074Z,16.88
2018-03-06T06:21:42.045Z,16.88
2018-03-06T06:22:42.026Z,16.88
2018-03-06T06:23:42.000Z,22.50
2018-03-06T06:24:41.984Z,22.50
2018-03-06T06:25:41.956Z,22.50
2018-03-06T06:26:41.939Z,22.50
2018-03-06T06:27:41.917Z,28.13
2018-03-06T06:28:41.900Z,28.13
2018-03-06T06:29:41.877Z,28.13
2018-03-06T06:30:41.848Z,33.75
2018-03-06T06:31:41.828Z,33.75
2018-03-06T06:32:41.806Z,33.75
2018-03-06T06:33:41.801Z,33.75
2018-03-06T06:34:41.765Z,33.75
2018-03-06T06:35:41.740Z,33.75
2018-03-06T06:36:41.718Z,39.38
2018-03-06T06:37:41.696Z,39.38
2018-03-06T06:38:41.680Z,45.00
2018-03-06T06:39:41.659Z,45.00
2018-03-06T06:40:41.630Z,50.63
2018-03-06T06:41:41.611Z,56.25
2018-03-06T06:42:41.593Z,56.25
2018-03-06T06:43:41.572Z,61.88
2018-03-06T06:44:41.551Z,101.25
2018-03-06T06:45:41.524Z,151.88
2018-03-06T06:46:41.506Z,151.88
2018-03-06T06:47:41.489Z,106.88
2018-03-06T06:48:41.461Z,90.00
2018-03-06T06:49:41.440Z,95.63
2018-03-06T06:50:41.419Z,101.25
2018-03-06T06:51:41.399Z,123.75
2018-03-06T06:52:41.386Z,157.50
2018-03-06T06:53:41.360Z,202.50
2018-03-06T06:54:41.344Z,208.13
2018-03-06T06:55:41.331Z,230.63
2018-03-06T06:56:41.301Z,253.13
2018-03-06T06:57:41.281Z,292.50
2018-03-06T06:58:41.268Z,281.25
2018-03-06T06:59:41.244Z,264.38
2018-03-06T07:00:41.225Z,292.50
2018-03-06T07:01:41.206Z,331.88
2018-03-06T07:02:41.193Z,337.50
2018-03-06T07:03:41.172Z,348.75
2018-03-06T07:04:41.149Z,382.50
2018-03-06T07:05:41.134Z,410.63
2018-03-06T07:06:41.114Z,393.75
2018-03-06T07:07:41.100Z,354.38
2018-03-06T07:08:41.080Z,416.25
2018-03-06T07:09:41.065Z,455.63
2018-03-06T07:10:41.052Z,450.00
2018-03-06T07:11:41.030Z,331.88
2018-03-06T07:12:41.011Z,146.25
2018-03-06T07:13:41.000Z,343.13
2018-03-06T07:14:40.980Z,292.50
2018-03-06T07:15:40.965Z,168.75
2018-03-06T07:16:40.948Z,208.13
2018-03-06T07:17:40.940Z,416.25
2018-03-06T07:18:40.912Z,483.75
2018-03-06T07:19:40.899Z,506.25
2018-03-06T07:20:40.881Z,528.75
2018-03-06T07:21:40.866Z,568.13
2018-03-06T07:22:40.852Z,585.00
2018-03-06T07:23:40.835Z,613.13
2018-03-06T07:24:40.832Z,618.75
2018-03-06T07:25:40.805Z,590.63
2018-03-06T07:26:40.792Z,534.38
2018-03-06T07:27:40.785Z,545.63
2018-03-06T07:28:40.761Z,596.25
2018-03-06T07:29:40.800Z,585.00
2018-03-06T07:30:40.741Z,624.38
2018-03-06T07:31:40.725Z,646.88
2018-03-06T07:32:40.712Z,630.00
2018-03-06T07:33:40.696Z,630.00
2018-03-06T07:34:40.691Z,725.63
2018-03-06T07:35:40.680Z,720.00
2018-03-06T07:36:40.659Z,680.63
2018-03-06T07:37:40.662Z,725.63
2018-03-06T07:38:40.641Z,742.50
2018-03-06T07:39:40.628Z,765.00
2018-03-06T07:40:40.620Z,770.63
2018-03-06T07:41:40.608Z,720.00
2018-03-06T07:42:40.598Z,776.25
2018-03-06T07:43:40.588Z,793.13
2018-03-06T07:44:40.575Z,798.75
2018-03-06T07:45:40.716Z,776.25
2018-03-06T07:46:40.553Z,793.13
2018-03-06T07:47:40.649Z,798.75
2018-03-06T07:48:40.541Z,736.88
2018-03-06T07:49:40.591Z,736.88
2018-03-06T07:50:40.518Z,770.63
2018-03-06T07:51:40.562Z,753.75
2018-03-06T07:52:40.500Z,748.13
2018-03-06T07:53:40.545Z,781.88
2018-03-06T07:54:40.483Z,770.63
2018-03-06T07:55:40.528Z,708.75
2018-03-06T07:56:40.466Z,703.13
2018-03-06T07:57:40.461Z,720.00
2018-03-06T07:58:40.451Z,742.50
2018-03-06T07:59:40.451Z,821.25
2018-03-06T08:00:40.436Z,815.63
2018-03-06T08:01:40.422Z,776.25
2018-03-06T08:02:40.418Z,781.88
2018-03-06T08:03:40.410Z,804.38
2018-03-06T08:04:40.399Z,776.25
2018-03-06T08:05:40.390Z,843.75
2018-03-06T08:06:40.382Z,894.38
2018-03-06T08:07:40.378Z,877.50
2018-03-06T08:08:40.366Z,916.88
2018-03-06T08:09:40.371Z,939.38
2018-03-06T08:10:40.360Z,928.13
2018-03-06T08:11:40.376Z,978.75
2018-03-06T08:12:40.349Z,978.75
2018-03-06T08:13:40.334Z,978.75
2018-03-06T08:14:40.328Z,1018.13
2018-03-06T08:15:40.322Z,1006.88
2018-03-06T08:16:40.323Z,928.13
2018-03-06T08:17:40.310Z,916.88
2018-03-06T08:18:40.311Z,939.38
2018-03-06T08:19:40.297Z,928.13
2018-03-06T08:20:40.291Z,967.50
2018-03-06T08:21:40.286Z,973.13
2018-03-06T08:22:40.342Z,973.13
2018-03-06T08:23:40.279Z,1023.75
2018-03-06T08:24:40.273Z,1074.38
2018-03-06T08:25:40.268Z,1057.50
2018-03-06T08:26:40.412Z,1035.00
2018-03-06T08:27:40.256Z,1113.75
2018-03-06T08:28:40.302Z,1096.88
2018-03-06T08:29:40.246Z,804.38
2018-03-06T08:30:40.242Z,753.75
2018-03-06T08:31:40.241Z,900.00
2018-03-06T08:32:40.233Z,1141.88
2018-03-06T08:33:40.233Z,1051.88
2018-03-06T08:34:40.222Z,1057.50
2018-03-06T08:35:40.216Z,1068.75
2018-03-06T08:36:40.214Z,1040.63
2018-03-06T08:37:40.229Z,1018.13
2018-03-06T08:38:40.207Z,1051.88
2018-03-06T08:39:40.205Z,1035.00
2018-03-06T08:40:40.200Z,1018.13
2018-03-06T08:41:40.198Z,1057.50
2018-03-06T08:42:40.192Z,1051.88
2018-03-06T08:43:40.229Z,1035.00
2018-03-06T08:44:40.182Z,1035.00
2018-03-06T08:45:40.181Z,1035.00
2018-03-06T08:46:40.179Z,933.75
2018-03-06T08:47:40.172Z,1001.25
2018-03-06T08:48:40.170Z,984.38
2018-03-06T08:49:40.172Z,1102.50
2018-03-06T08:50:40.162Z,1091.25
2018-03-06T08:51:40.157Z,1181.25
2018-03-06T08:52:40.154Z,978.75
2018-03-06T08:53:40.152Z,753.75
2018-03-06T08:54:40.152Z,1012.50
2018-03-06T08:55:40.145Z,1237.50
2018-03-06T08:56:40.148Z,1023.75
2018-03-06T08:57:40.159Z,1063.13
2018-03-06T08:58:40.138Z,1035.00
2018-03-06T08:59:40.139Z,1001.25
2018-03-06T09:00:40.129Z,939.38
2018-03-06T09:01:40.125Z,900.00
2018-03-06T09:02:40.120Z,922.50
2018-03-06T09:03:40.134Z,956.25
2018-03-06T09:04:40.114Z,995.63
2018-03-06T09:05:40.111Z,933.75
2018-03-06T09:06:40.109Z,945.00
2018-03-06T09:07:40.108Z,871.88
2018-03-06T09:08:40.101Z,849.38
2018-03-06T09:09:40.102Z,1091.25
2018-03-06T09:10:40.098Z,1136.25
2018-03-06T09:11:40.099Z,1141.88
2018-03-06T09:12:40.089Z,1125.00
2018-03-06T09:13:40.089Z,1130.63
2018-03-06T09:14:40.090Z,1074.38
2018-03-06T09:15:40.082Z,1085.63
2018-03-06T09:16:40.081Z,1108.13
2018-03-06T09:17:40.073Z,1074.38
2018-03-06T09:18:40.077Z,990.00
2018-03-06T09:19:40.068Z,961.88
2018-03-06T09:20:40.061Z,1057.50
2018-03-06T09:21:40.057Z,1040.63
2018-03-06T09:22:40.058Z,1136.25
2018-03-06T09:23:40.063Z,1108.13
2018-03-06T09:24:40.052Z,871.88
2018-03-06T09:25:40.046Z,1029.38
2018-03-06T09:26:40.050Z,1046.25
2018-03-06T09:27:40.046Z,1051.88
2018-03-06T09:28:40.038Z,1012.50
2018-03-06T09:29:40.039Z,984.38
2018-03-06T09:30:40.030Z,978.75
2018-03-06T09:31:40.027Z,990.00
2018-03-06T09:32:40.024Z,967.50
2018-03-06T09:33:40.018Z,939.38
2018-03-06T09:34:40.021Z,928.13
2018-03-06T09:35:40.020Z,928.13
2018-03-06T09:36:40.010Z,877.50
2018-03-06T09:37:40.008Z,883.13
2018-03-06T09:38:40.014Z,900.00
2018-03-06T09:39:40.005Z,888.75
2018-03-06T09:40:39.999Z,877.50
2018-03-06T09:41:40.001Z,855.00
2018-03-06T09:42:39.992Z,877.50
2018-03-06T09:43:39.988Z,950.63
2018-03-06T09:44:39.980Z,916.88
2018-03-06T09:45:39.978Z,922.50
2018-03-06T09:46:39.985Z,860.63
2018-03-06T09:47:39.979Z,883.13
2018-03-06T09:48:39.967Z,905.63
2018-03-06T09:49:39.961Z,849.38
2018-03-06T09:50:39.960Z,821.25
2018-03-06T09:51:39.955Z,787.50
2018-03-06T09:52:39.949Z,888.75
2018-03-06T09:53:39.949Z,877.50
2018-03-06T09:54:39.941Z,916.88
2018-03-06T09:55:39.949Z,900.00
2018-03-06T09:56:39.929Z,916.88
2018-03-06T09:57:39.926Z,894.38
2018-03-06T09:58:39.919Z,860.63
2018-03-06T09:59:39.916Z,849.38
2018-03-06T10:00:39.914Z,736.88
2018-03-06T10:01:39.906Z,725.63
2018-03-06T10:02:39.904Z,793.13
2018-03-06T10:03:39.902Z,720.00
2018-03-06T10:04:39.888Z,748.13
2018-03-06T10:05:39.885Z,652.50
2018-03-06T10:06:39.878Z,528.75
2018-03-06T10:07:39.929Z,495.00
2018-03-06T10:08:39.871Z,495.00
2018-03-06T10:09:39.872Z,483.75
2018-03-06T10:10:39.863Z,500.63
2018-03-06T10:11:39.857Z,495.00
2018-03-06T10:12:39.849Z,506.25
2018-03-06T10:13:39.846Z,506.25
2018-03-06T10:14:39.837Z,540.00
2018-03-06T10:15:39.844Z,573.75
2018-03-06T10:16:39.843Z,630.00
2018-03-06T10:17:39.820Z,618.75
2018-03-06T10:18:39.826Z,613.13
2018-03-06T10:19:39.809Z,663.75
2018-03-06T10:20:39.809Z,663.75
2018-03-06T10:21:39.795Z,669.38
2018-03-06T10:22:39.793Z,680.63
2018-03-06T10:23:39.788Z,646.88
2018-03-06T10:24:39.780Z,624.38
2018-03-06T10:25:39.774Z,613.13
2018-03-06T10:26:39.770Z,596.25
2018-03-06T10:27:39.762Z,607.50
2018-03-06T10:28:39.760Z,641.25
2018-03-06T10:29:39.751Z,641.25
2018-03-06T10:30:39.748Z,658.13
2018-03-06T10:31:39.740Z,624.38
2018-03-06T10:32:39.735Z,601.88
2018-03-06T10:33:39.727Z,585.00
2018-03-06T10:34:39.859Z,551.25
2018-03-06T10:35:39.725Z,579.38
2018-03-06T10:36:39.715Z,579.38
2018-03-06T10:37:39.701Z,540.00
2018-03-06T10:38:39.782Z,438.75
2018-03-06T10:39:39.691Z,461.25
2018-03-06T10:40:39.758Z,405.00
2018-03-06T10:41:39.676Z,382.50
2018-03-06T10:42:39.718Z,376.88
2018-03-06T10:43:39.670Z,365.63
2018-03-06T10:44:39.664Z,365.63
2018-03-06T10:45:39.649Z,343.13
2018-03-06T10:46:39.671Z,337.50
2018-03-06T10:47:39.635Z,320.63
2018-03-06T10:48:39.630Z,320.63
2018-03-06T10:49:39.658Z,298.13
2018-03-06T10:50:39.619Z,292.50
2018-03-06T10:51:39.610Z,270.00
2018-03-06T10:52:39.600Z,258.75
2018-03-06T10:53:39.595Z,258.75
2018-03-06T10:54:39.595Z,298.13
2018-03-06T10:55:39.582Z,309.38
2018-03-06T10:56:39.575Z,315.00
2018-03-06T10:57:39.566Z,343.13
2018-03-06T10:58:39.562Z,348.75
2018-03-06T10:59:39.562Z,348.75
2018-03-06T11:00:39.547Z,348.75
2018-03-06T11:01:39.540Z,354.38
2018-03-06T11:02:39.530Z,331.88
2018-03-06T11:03:39.524Z,326.25
2018-03-06T11:04:39.515Z,320.63
2018-03-06T11:05:39.509Z,303.75
2018-03-06T11:06:39.502Z,320.63
2018-03-06T11:07:39.495Z,320.63
2018-03-06T11:08:39.500Z,309.38
2018-03-06T11:09:39.479Z,315.00
2018-03-06T11:10:39.470Z,309.38
2018-03-06T11:11:39.468Z,320.63
2018-03-06T11:12:39.460Z,320.63
2018-03-06T11:13:39.444Z,331.88
2018-03-06T11:14:39.486Z,326.25
2018-03-06T11:15:39.434Z,320.63
2018-03-06T11:16:39.421Z,298.13
2018-03-06T11:17:39.416Z,309.38
2018-03-06T11:18:39.406Z,315.00
2018-03-06T11:19:39.499Z,309.38
2018-03-06T11:20:39.385Z,303.75
2018-03-06T11:21:39.381Z,309.38
2018-03-06T11:22:39.371Z,315.00
2018-03-06T11:23:39.378Z,303.75
2018-03-06T11:24:39.396Z,298.13
2018-03-06T11:25:39.351Z,292.50
2018-03-06T11:26:39.339Z,286.88
2018-03-06T11:27:39.333Z,286.88
2018-03-06T11:28:39.328Z,275.63
2018-03-06T11:29:39.315Z,275.63
2018-03-06T11:30:39.320Z,258.75
2018-03-06T11:31:39.298Z,253.13
2018-03-06T11:32:39.292Z,258.75
2018-03-06T11:33:39.289Z,275.63
2018-03-06T11:34:39.279Z,281.25
2018-03-06T11:35:39.263Z,258.75
2018-03-06T11:36:39.258Z,264.38
2018-03-06T11:37:39.250Z,253.13
2018-03-06T11:38:39.240Z,258.75
2018-03-06T11:39:39.229Z,275.63
2018-03-06T11:40:39.220Z,264.38
2018-03-06T11:41:39.213Z,258.75
2018-03-06T11:42:39.208Z,275.63
2018-03-06T11:43:39.202Z,270.00
2018-03-06T11:44:39.192Z,253.13
2018-03-06T11:45:39.181Z,247.50
2018-03-06T11:46:39.169Z,247.50
2018-03-06T11:47:39.172Z,241.88
2018-03-06T11:48:39.155Z,236.25
2018-03-06T11:49:39.147Z,247.50
2018-03-06T11:50:39.142Z,236.25
2018-03-06T11:51:39.132Z,253.13
2018-03-06T11:52:39.116Z,253.13
2018-03-06T11:53:39.108Z,258.75
2018-03-06T11:54:39.102Z,253.13
2018-03-06T11:55:39.091Z,253.13
2018-03-06T11:56:39.080Z,253.13
2018-03-06T11:57:39.076Z,247.50
2018-03-06T11:58:39.081Z,247.50
2018-03-06T11:59:39.052Z,219.38
2018-03-06T12:00:39.050Z,219.38
2018-03-06T12:01:39.045Z,219.38
2018-03-06T12:02:39.029Z,213.75
2018-03-06T12:03:39.017Z,202.50
2018-03-06T12:04:39.009Z,191.25
2018-03-06T12:05:39.004Z,180.00
2018-03-06T12:06:38.992Z,174.38
2018-03-06T12:07:38.989Z,168.75
2018-03-06T12:08:38.985Z,168.75
2018-03-06T12:09:38.966Z,168.75
2018-03-06T12:10:38.960Z,157.50
2018-03-06T12:11:38.951Z,151.88
2018-03-06T12:12:38.936Z,157.50
2018-03-06T12:13:38.928Z,174.38
2018-03-06T12:14:38.923Z,185.63
2018-03-06T12:15:38.910Z,185.63
2018-03-06T12:16:38.897Z,180.00
2018-03-06T12:17:38.886Z,174.38
2018-03-06T12:18:38.922Z,168.75
2018-03-06T12:19:38.870Z,157.50
2018-03-06T12:20:38.857Z,163.13
2018-03-06T12:21:38.850Z,157.50
2018-03-06T12:22:38.840Z,163.13
2018-03-06T12:23:38.830Z,163.13
2018-03-06T12:24:38.822Z,163.13
2018-03-06T12:25:38.809Z,163.13
2018-03-06T12:26:38.815Z,163.13
2018-03-06T12:27:38.789Z,163.13
2018-03-06T12:28:38.780Z,168.75
2018-03-06T12:29:38.780Z,168.75
2018-03-06T12:30:38.760Z,168.75
2018-03-06T12:31:38.752Z,163.13
2018-03-06T12:32:38.744Z,168.75
2018-03-06T12:33:38.727Z,163.13
2018-03-06T12:34:38.722Z,163.13
2018-03-06T12:35:38.714Z,163.13
2018-03-06T12:36:38.700Z,168.75
2018-03-06T12:37:38.688Z,168.75
2018-03-06T12:38:38.680Z,168.75
2018-03-06T12:39:38.665Z,168.75
2018-03-06T12:40:38.662Z,168.75
2018-03-06T12:41:38.657Z,168.75
2018-03-06T12:42:38.639Z,168.75
2018-03-06T12:43:38.635Z,168.75
2018-03-06T12:44:38.618Z,168.75
2018-03-06T12:45:38.600Z,168.75
2018-03-06T12:46:38.596Z,168.75
2018-03-06T12:47:38.586Z,168.75
2018-03-06T12:48:38.570Z,168.75
2018-03-06T12:49:38.562Z,168.75
2018-03-06T12:50:38.551Z,168.75
2018-03-06T12:51:38.552Z,163.13